sensor_id;sensor_type;location;lat;lon;timestamp;temperature;humidity
21171;DHT22;10743;52.160;20.910;2022-12-29T00:00:19;23.90;29.30
21171;DHT22;10743;52.160;20.910;2022-12-29T00:02:46;23.80;29.30
21171;DHT22;10743;52.160;20.910;2022-12-29T00:05:14;23.90;29.40
21171;DHT22;10743;52.160;20.910;2022-12-29T00:07:41;23.90;29.30
21171;DHT22;10743;52.160;20.910;2022-12-29T00:10:08;23.80;29.40
21171;DHT22;10743;52.160;20.910;2022-12-29T00:12:35;23.80;29.40
21171;DHT22;10743;52.160;20.910;2022-12-29T00:15:20;23.80;29.50
21171;DHT22;10743;52.160;20.910;2022-12-29T00:18:06;23.80;29.30
21171;DHT22;10743;52.160;20.910;2022-12-29T00:20:35;23.90;29.30
21171;DHT22;10743;52.160;20.910;2022-12-29T00:23:22;23.90;29.20
21171;DHT22;10743;52.160;20.910;2022-12-29T00:26:16;23.90;29.30
21171;DHT22;10743;52.160;20.910;2022-12-29T00:29:02;24.00;29.30
21171;DHT22;10743;52.160;20.910;2022-12-29T00:31:48;24.00;29.20
21171;DHT22;10743;52.160;20.910;2022-12-29T00:34:44;24.00;29.20
21171;DHT22;10743;52.160;20.910;2022-12-29T00:37:30;24.10;29.10
21171;DHT22;10743;52.160;20.910;2022-12-29T00:40:15;24.10;29.10
21171;DHT22;10743;52.160;20.910;2022-12-29T00:43:01;24.10;29.10
21171;DHT22;10743;52.160;20.910;2022-12-29T00:45:47;24.10;29.10
21171;DHT22;10743;52.160;20.910;2022-12-29T00:48:14;24.10;29.10
21171;DHT22;10743;52.160;20.910;2022-12-29T00:50:41;24.10;29.20
21171;DHT22;10743;52.160;20.910;2022-12-29T00:53:08;24.00;29.10
21171;DHT22;10743;52.160;20.910;2022-12-29T00:55:38;24.10;29.10
21171;DHT22;10743;52.160;20.910;2022-12-29T00:58:05;24.10;29.20
21171;DHT22;10743;52.160;20.910;2022-12-29T01:00:32;24.00;29.10
21171;DHT22;10743;52.160;20.910;2022-12-29T01:03:00;24.10;29.10
21171;DHT22;10743;52.160;20.910;2022-12-29T01:05:27;24.10;29.10
21171;DHT22;10743;52.160;20.910;2022-12-29T01:07:54;24.10;29.00
21171;DHT22;10743;52.160;20.910;2022-12-29T01:10:23;24.10;29.00
21171;DHT22;10743;52.160;20.910;2022-12-29T01:12:52;24.10;29.00
21171;DHT22;10743;52.160;20.910;2022-12-29T01:15:19;24.10;29.10
21171;DHT22;10743;52.160;20.910;2022-12-29T01:17:47;24.10;29.10
21171;DHT22;10743;52.160;20.910;2022-12-29T01:20:14;24.10;29.60
21171;DHT22;10743;52.160;20.910;2022-12-29T01:22:42;24.10;29.10
21171;DHT22;10743;52.160;20.910;2022-12-29T01:25:10;24.10;29.10
21171;DHT22;10743;52.160;20.910;2022-12-29T01:27:37;24.10;29.10
21171;DHT22;10743;52.160;20.910;2022-12-29T01:30:05;24.10;29.10
21171;DHT22;10743;52.160;20.910;2022-12-29T01:32:33;24.10;29.20
21171;DHT22;10743;52.160;20.910;2022-12-29T01:35:00;24.00;29.10
21171;DHT22;10743;52.160;20.910;2022-12-29T01:37:27;24.00;29.20
21171;DHT22;10743;52.160;20.910;2022-12-29T01:39:54;24.00;29.20
21171;DHT22;10743;52.160;20.910;2022-12-29T01:42:24;24.00;29.30
21171;DHT22;10743;52.160;20.910;2022-12-29T01:44:54;24.00;29.20
21171;DHT22;10743;52.160;20.910;2022-12-29T01:47:33;24.00;29.10
21171;DHT22;10743;52.160;20.910;2022-12-29T01:50:11;24.00;29.20
21171;DHT22;10743;52.160;20.910;2022-12-29T01:53:02;24.00;29.10
21171;DHT22;10743;52.160;20.910;2022-12-29T01:55:40;24.00;29.10
21171;DHT22;10743;52.160;20.910;2022-12-29T01:58:38;24.00;29.20
21171;DHT22;10743;52.160;20.910;2022-12-29T02:01:07;24.00;29.20
21171;DHT22;10743;52.160;20.910;2022-12-29T02:03:35;24.00;29.30
21171;DHT22;10743;52.160;20.910;2022-12-29T02:06:33;24.00;29.30
21171;DHT22;10743;52.160;20.910;2022-12-29T02:09:03;24.00;29.20
21171;DHT22;10743;52.160;20.910;2022-12-29T02:11:31;24.00;29.50
21171;DHT22;10743;52.160;20.910;2022-12-29T02:13:58;23.90;29.60
21171;DHT22;10743;52.160;20.910;2022-12-29T02:16:31;23.90;29.50
21171;DHT22;10743;52.160;20.910;2022-12-29T02:36:49;23.90;29.70
21171;DHT22;10743;52.160;20.910;2022-12-29T02:39:52;23.80;30.00
21171;DHT22;10743;52.160;20.910;2022-12-29T02:45:15;23.90;30.10
21171;DHT22;10743;52.160;20.910;2022-12-29T02:48:08;23.90;30.20
21171;DHT22;10743;52.160;20.910;2022-12-29T02:50:57;23.90;30.10
21171;DHT22;10743;52.160;20.910;2022-12-29T02:53:32;23.90;30.00
21171;DHT22;10743;52.160;20.910;2022-12-29T02:56:18;23.90;30.10
21171;DHT22;10743;52.160;20.910;2022-12-29T02:58:46;23.80;30.30
21171;DHT22;10743;52.160;20.910;2022-12-29T03:01:28;23.80;30.40
21171;DHT22;10743;52.160;20.910;2022-12-29T03:11:03;23.70;31.30
21171;DHT22;10743;52.160;20.910;2022-12-29T03:13:43;23.70;31.30
21171;DHT22;10743;52.160;20.910;2022-12-29T03:16:49;23.70;31.40
21171;DHT22;10743;52.160;20.910;2022-12-29T03:19:28;23.70;31.40
21171;DHT22;10743;52.160;20.910;2022-12-29T03:22:01;23.60;31.50
21171;DHT22;10743;52.160;20.910;2022-12-29T03:25:05;23.60;31.50
21171;DHT22;10743;52.160;20.910;2022-12-29T03:27:41;23.50;31.70
21171;DHT22;10743;52.160;20.910;2022-12-29T03:30:12;23.50;31.80
21171;DHT22;10743;52.160;20.910;2022-12-29T03:32:42;23.60;31.90
21171;DHT22;10743;52.160;20.910;2022-12-29T03:35:14;23.50;31.80
21171;DHT22;10743;52.160;20.910;2022-12-29T03:37:55;23.50;31.90
21171;DHT22;10743;52.160;20.910;2022-12-29T03:40:27;23.50;32.00
21171;DHT22;10743;52.160;20.910;2022-12-29T03:42:56;23.50;32.10
21171;DHT22;10743;52.160;20.910;2022-12-29T03:45:23;23.60;32.40
21171;DHT22;10743;52.160;20.910;2022-12-29T03:47:52;23.50;31.80
21171;DHT22;10743;52.160;20.910;2022-12-29T03:50:20;23.40;31.90
21171;DHT22;10743;52.160;20.910;2022-12-29T03:52:47;23.40;32.00
21171;DHT22;10743;52.160;20.910;2022-12-29T03:55:14;23.40;32.00
21171;DHT22;10743;52.160;20.910;2022-12-29T03:57:42;23.30;32.20
21171;DHT22;10743;52.160;20.910;2022-12-29T04:00:14;23.30;32.20
21171;DHT22;10743;52.160;20.910;2022-12-29T04:02:48;23.20;32.30
21171;DHT22;10743;52.160;20.910;2022-12-29T04:05:19;23.20;32.30
21171;DHT22;10743;52.160;20.910;2022-12-29T04:07:49;23.20;32.30
21171;DHT22;10743;52.160;20.910;2022-12-29T04:10:16;23.20;32.10
21171;DHT22;10743;52.160;20.910;2022-12-29T04:12:45;23.20;32.10
21171;DHT22;10743;52.160;20.910;2022-12-29T04:15:13;23.20;32.20
21171;DHT22;10743;52.160;20.910;2022-12-29T04:17:41;23.20;32.30
21171;DHT22;10743;52.160;20.910;2022-12-29T04:20:09;23.20;32.10
21171;DHT22;10743;52.160;20.910;2022-12-29T04:23:04;23.20;32.00
21171;DHT22;10743;52.160;20.910;2022-12-29T04:25:33;23.10;32.00
21171;DHT22;10743;52.160;20.910;2022-12-29T04:28:02;23.10;31.90
21171;DHT22;10743;52.160;20.910;2022-12-29T04:30:48;23.20;31.80
21171;DHT22;10743;52.160;20.910;2022-12-29T04:33:22;23.10;31.70
21171;DHT22;10743;52.160;20.910;2022-12-29T04:35:50;23.20;31.50
21171;DHT22;10743;52.160;20.910;2022-12-29T04:38:17;23.10;31.40
21171;DHT22;10743;52.160;20.910;2022-12-29T04:40:46;23.10;31.60
21171;DHT22;10743;52.160;20.910;2022-12-29T04:43:16;23.10;31.50
21171;DHT22;10743;52.160;20.910;2022-12-29T04:46:01;23.00;31.40
21171;DHT22;10743;52.160;20.910;2022-12-29T04:48:35;23.00;31.50
21171;DHT22;10743;52.160;20.910;2022-12-29T04:51:21;23.00;31.30
21171;DHT22;10743;52.160;20.910;2022-12-29T04:53:49;22.90;31.40
21171;DHT22;10743;52.160;20.910;2022-12-29T04:56:16;22.90;31.30
21171;DHT22;10743;52.160;20.910;2022-12-29T04:58:44;22.90;31.20
21171;DHT22;10743;52.160;20.910;2022-12-29T05:01:13;22.90;31.10
21171;DHT22;10743;52.160;20.910;2022-12-29T05:03:40;22.90;30.90
21171;DHT22;10743;52.160;20.910;2022-12-29T05:06:07;22.80;31.00
21171;DHT22;10743;52.160;20.910;2022-12-29T05:08:35;22.80;31.20
21171;DHT22;10743;52.160;20.910;2022-12-29T05:11:02;22.80;31.10
21171;DHT22;10743;52.160;20.910;2022-12-29T05:13:29;22.80;31.20
21171;DHT22;10743;52.160;20.910;2022-12-29T05:15:57;22.80;31.20
21171;DHT22;10743;52.160;20.910;2022-12-29T05:18:24;22.80;31.20
21171;DHT22;10743;52.160;20.910;2022-12-29T05:20:51;22.80;31.10
21171;DHT22;10743;52.160;20.910;2022-12-29T05:23:20;22.80;31.10
21171;DHT22;10743;52.160;20.910;2022-12-29T05:25:58;22.80;30.80
21171;DHT22;10743;52.160;20.910;2022-12-29T05:28:30;22.80;30.60
21171;DHT22;10743;52.160;20.910;2022-12-29T05:31:03;22.80;30.50
21171;DHT22;10743;52.160;20.910;2022-12-29T05:33:31;22.80;30.60
21171;DHT22;10743;52.160;20.910;2022-12-29T05:36:06;22.80;30.60
21171;DHT22;10743;52.160;20.910;2022-12-29T05:38:37;22.80;30.20
21171;DHT22;10743;52.160;20.910;2022-12-29T05:41:04;22.80;30.30
21171;DHT22;10743;52.160;20.910;2022-12-29T05:44:05;22.80;30.30
21171;DHT22;10743;52.160;20.910;2022-12-29T05:47:01;22.80;30.10
21171;DHT22;10743;52.160;20.910;2022-12-29T05:49:46;22.80;30.00
21171;DHT22;10743;52.160;20.910;2022-12-29T05:52:33;22.90;30.00
21171;DHT22;10743;52.160;20.910;2022-12-29T05:55:01;22.90;29.90
21171;DHT22;10743;52.160;20.910;2022-12-29T05:57:30;23.00;29.90
21171;DHT22;10743;52.160;20.910;2022-12-29T06:00:05;23.00;29.80
21171;DHT22;10743;52.160;20.910;2022-12-29T06:02:40;23.00;29.80
21171;DHT22;10743;52.160;20.910;2022-12-29T06:05:08;23.00;29.80
21171;DHT22;10743;52.160;20.910;2022-12-29T06:07:37;23.00;29.70
21171;DHT22;10743;52.160;20.910;2022-12-29T06:10:08;23.00;29.70
21171;DHT22;10743;52.160;20.910;2022-12-29T06:12:43;23.10;29.50
21171;DHT22;10743;52.160;20.910;2022-12-29T06:15:10;23.00;29.60
21171;DHT22;10743;52.160;20.910;2022-12-29T06:17:40;23.00;29.60
21171;DHT22;10743;52.160;20.910;2022-12-29T06:20:08;23.00;29.60
21171;DHT22;10743;52.160;20.910;2022-12-29T06:22:37;23.10;29.50
21171;DHT22;10743;52.160;20.910;2022-12-29T06:25:05;23.10;29.40
21171;DHT22;10743;52.160;20.910;2022-12-29T06:27:34;23.10;29.20
21171;DHT22;10743;52.160;20.910;2022-12-29T06:30:01;23.10;29.30
21171;DHT22;10743;52.160;20.910;2022-12-29T06:32:28;23.00;29.70
21171;DHT22;10743;52.160;20.910;2022-12-29T06:35:01;23.10;29.60
21171;DHT22;10743;52.160;20.910;2022-12-29T06:37:30;23.00;29.80
21171;DHT22;10743;52.160;20.910;2022-12-29T06:39:57;23.00;29.80
21171;DHT22;10743;52.160;20.910;2022-12-29T06:42:31;23.00;29.90
21171;DHT22;10743;52.160;20.910;2022-12-29T06:45:27;23.00;29.80
21171;DHT22;10743;52.160;20.910;2022-12-29T06:47:55;23.10;29.70
21171;DHT22;10743;52.160;20.910;2022-12-29T06:50:22;23.10;29.50
21171;DHT22;10743;52.160;20.910;2022-12-29T06:52:49;23.10;29.50
21171;DHT22;10743;52.160;20.910;2022-12-29T06:55:16;23.10;29.60
21171;DHT22;10743;52.160;20.910;2022-12-29T06:57:43;23.10;29.60
21171;DHT22;10743;52.160;20.910;2022-12-29T07:00:11;23.10;29.50
21171;DHT22;10743;52.160;20.910;2022-12-29T07:02:43;23.10;29.40
21171;DHT22;10743;52.160;20.910;2022-12-29T07:05:11;23.10;29.50
21171;DHT22;10743;52.160;20.910;2022-12-29T07:07:38;23.20;29.50
21171;DHT22;10743;52.160;20.910;2022-12-29T07:10:05;23.20;29.30
21171;DHT22;10743;52.160;20.910;2022-12-29T07:12:32;23.10;29.40
21171;DHT22;10743;52.160;20.910;2022-12-29T07:14:59;23.10;29.30
21171;DHT22;10743;52.160;20.910;2022-12-29T07:17:27;23.20;29.40
21171;DHT22;10743;52.160;20.910;2022-12-29T07:19:54;23.10;29.40
21171;DHT22;10743;52.160;20.910;2022-12-29T07:22:21;23.20;29.40
21171;DHT22;10743;52.160;20.910;2022-12-29T07:24:48;23.20;29.30
21171;DHT22;10743;52.160;20.910;2022-12-29T07:27:15;23.20;29.30
21171;DHT22;10743;52.160;20.910;2022-12-29T07:29:42;23.20;29.40
21171;DHT22;10743;52.160;20.910;2022-12-29T07:32:09;23.20;29.30
21171;DHT22;10743;52.160;20.910;2022-12-29T07:34:36;23.30;29.30
21171;DHT22;10743;52.160;20.910;2022-12-29T07:37:03;23.30;29.40
21171;DHT22;10743;52.160;20.910;2022-12-29T07:39:30;23.20;29.30
21171;DHT22;10743;52.160;20.910;2022-12-29T07:41:58;23.30;29.30
21171;DHT22;10743;52.160;20.910;2022-12-29T07:44:39;23.30;29.10
21171;DHT22;10743;52.160;20.910;2022-12-29T07:47:15;23.40;29.10
21171;DHT22;10743;52.160;20.910;2022-12-29T07:49:42;23.40;29.20
21171;DHT22;10743;52.160;20.910;2022-12-29T07:52:10;23.40;29.00
21171;DHT22;10743;52.160;20.910;2022-12-29T07:54:37;23.40;29.00
21171;DHT22;10743;52.160;20.910;2022-12-29T07:57:05;23.40;29.00
21171;DHT22;10743;52.160;20.910;2022-12-29T07:59:33;23.50;29.00
21171;DHT22;10743;52.160;20.910;2022-12-29T08:02:00;23.50;28.90
21171;DHT22;10743;52.160;20.910;2022-12-29T08:04:27;23.50;29.00
21171;DHT22;10743;52.160;20.910;2022-12-29T08:06:55;23.50;29.00
21171;DHT22;10743;52.160;20.910;2022-12-29T08:09:22;23.50;29.30
21171;DHT22;10743;52.160;20.910;2022-12-29T08:11:50;23.50;28.90
21171;DHT22;10743;52.160;20.910;2022-12-29T08:14:18;23.50;28.90
21171;DHT22;10743;52.160;20.910;2022-12-29T08:16:46;23.60;28.60
21171;DHT22;10743;52.160;20.910;2022-12-29T08:19:13;23.50;28.80
21171;DHT22;10743;52.160;20.910;2022-12-29T08:21:41;23.50;28.70
21171;DHT22;10743;52.160;20.910;2022-12-29T08:24:08;23.50;28.80
21171;DHT22;10743;52.160;20.910;2022-12-29T08:26:36;23.50;28.80
21171;DHT22;10743;52.160;20.910;2022-12-29T08:29:03;23.60;28.70
21171;DHT22;10743;52.160;20.910;2022-12-29T08:31:30;23.70;28.70
21171;DHT22;10743;52.160;20.910;2022-12-29T08:33:57;23.70;28.70
21171;DHT22;10743;52.160;20.910;2022-12-29T08:36:32;23.60;29.60
21171;DHT22;10743;52.160;20.910;2022-12-29T08:38:59;23.70;29.00
21171;DHT22;10743;52.160;20.910;2022-12-29T08:41:27;23.70;28.60
21171;DHT22;10743;52.160;20.910;2022-12-29T08:43:54;23.70;28.80
21171;DHT22;10743;52.160;20.910;2022-12-29T08:46:21;23.70;28.70
21171;DHT22;10743;52.160;20.910;2022-12-29T08:48:48;23.70;28.70
21171;DHT22;10743;52.160;20.910;2022-12-29T08:51:15;23.70;28.70
21171;DHT22;10743;52.160;20.910;2022-12-29T08:53:50;23.70;28.80
21171;DHT22;10743;52.160;20.910;2022-12-29T08:56:17;23.80;28.80
21171;DHT22;10743;52.160;20.910;2022-12-29T08:58:50;23.80;28.70
21171;DHT22;10743;52.160;20.910;2022-12-29T09:01:18;23.80;28.60
21171;DHT22;10743;52.160;20.910;2022-12-29T09:03:46;24.00;28.50
21171;DHT22;10743;52.160;20.910;2022-12-29T09:06:34;24.00;28.30
21171;DHT22;10743;52.160;20.910;2022-12-29T09:09:06;24.00;28.50
21171;DHT22;10743;52.160;20.910;2022-12-29T09:11:34;24.00;28.60
21171;DHT22;10743;52.160;20.910;2022-12-29T09:14:01;24.00;28.50
21171;DHT22;10743;52.160;20.910;2022-12-29T09:16:28;24.00;28.70
21171;DHT22;10743;52.160;20.910;2022-12-29T09:18:56;24.10;28.50
21171;DHT22;10743;52.160;20.910;2022-12-29T09:21:23;24.20;28.50
21171;DHT22;10743;52.160;20.910;2022-12-29T09:23:50;24.20;28.60
21171;DHT22;10743;52.160;20.910;2022-12-29T09:26:17;24.30;28.40
21171;DHT22;10743;52.160;20.910;2022-12-29T09:28:44;24.30;28.40
21171;DHT22;10743;52.160;20.910;2022-12-29T09:31:12;24.40;28.40
21171;DHT22;10743;52.160;20.910;2022-12-29T09:33:39;24.40;28.40
21171;DHT22;10743;52.160;20.910;2022-12-29T09:36:08;24.50;28.30
21171;DHT22;10743;52.160;20.910;2022-12-29T09:38:36;24.50;28.30
21171;DHT22;10743;52.160;20.910;2022-12-29T09:41:21;24.60;28.20
21171;DHT22;10743;52.160;20.910;2022-12-29T09:44:03;24.60;28.20
21171;DHT22;10743;52.160;20.910;2022-12-29T09:46:43;24.60;28.10
21171;DHT22;10743;52.160;20.910;2022-12-29T09:49:35;24.60;28.00
21171;DHT22;10743;52.160;20.910;2022-12-29T09:52:31;24.60;28.10
21171;DHT22;10743;52.160;20.910;2022-12-29T09:55:15;24.70;28.00
21171;DHT22;10743;52.160;20.910;2022-12-29T09:57:59;24.70;28.10
21171;DHT22;10743;52.160;20.910;2022-12-29T10:01:01;24.70;28.20
21171;DHT22;10743;52.160;20.910;2022-12-29T10:03:47;24.70;28.00
21171;DHT22;10743;52.160;20.910;2022-12-29T10:06:26;24.80;27.90
21171;DHT22;10743;52.160;20.910;2022-12-29T10:24:13;25.00;27.80
21171;DHT22;10743;52.160;20.910;2022-12-29T10:26:43;25.00;27.70
21171;DHT22;10743;52.160;20.910;2022-12-29T10:29:18;25.00;27.80
21171;DHT22;10743;52.160;20.910;2022-12-29T10:31:58;25.00;27.70
21171;DHT22;10743;52.160;20.910;2022-12-29T10:34:48;25.00;27.70
21171;DHT22;10743;52.160;20.910;2022-12-29T10:40:45;25.00;27.90
21171;DHT22;10743;52.160;20.910;2022-12-29T10:43:30;25.00;27.60
21171;DHT22;10743;52.160;20.910;2022-12-29T10:46:23;25.10;27.50
21171;DHT22;10743;52.160;20.910;2022-12-29T10:48:52;25.10;27.60
21171;DHT22;10743;52.160;20.910;2022-12-29T10:51:26;25.10;27.60
21171;DHT22;10743;52.160;20.910;2022-12-29T10:57:17;25.10;27.60
21171;DHT22;10743;52.160;20.910;2022-12-29T10:59:46;25.10;27.70
21171;DHT22;10743;52.160;20.910;2022-12-29T11:08:57;25.10;27.80
21171;DHT22;10743;52.160;20.910;2022-12-29T11:11:34;25.20;27.90
21171;DHT22;10743;52.160;20.910;2022-12-29T11:14:12;25.30;27.70
21171;DHT22;10743;52.160;20.910;2022-12-29T11:16:40;25.30;28.20
21171;DHT22;10743;52.160;20.910;2022-12-29T11:19:22;25.30;27.90
21171;DHT22;10743;52.160;20.910;2022-12-29T11:21:51;25.40;27.70
21171;DHT22;10743;52.160;20.910;2022-12-29T11:24:29;25.40;27.70
21171;DHT22;10743;52.160;20.910;2022-12-29T11:27:17;25.40;27.80
21171;DHT22;10743;52.160;20.910;2022-12-29T11:29:51;25.50;27.80
21171;DHT22;10743;52.160;20.910;2022-12-29T11:34:56;25.50;27.80
21171;DHT22;10743;52.160;20.910;2022-12-29T11:37:36;25.40;27.90
21171;DHT22;10743;52.160;20.910;2022-12-29T11:40:16;25.50;27.90
21171;DHT22;10743;52.160;20.910;2022-12-29T11:43:03;25.50;27.90
21171;DHT22;10743;52.160;20.910;2022-12-29T11:45:33;25.50;28.40
21171;DHT22;10743;52.160;20.910;2022-12-29T11:48:18;25.50;27.90
21171;DHT22;10743;52.160;20.910;2022-12-29T11:50:52;25.50;28.00
21171;DHT22;10743;52.160;20.910;2022-12-29T11:53:36;25.50;27.90
21171;DHT22;10743;52.160;20.910;2022-12-29T11:56:09;25.60;27.90
21171;DHT22;10743;52.160;20.910;2022-12-29T11:58:38;25.60;27.90
21171;DHT22;10743;52.160;20.910;2022-12-29T12:01:26;25.60;27.90
21171;DHT22;10743;52.160;20.910;2022-12-29T12:04:09;25.60;27.90
21171;DHT22;10743;52.160;20.910;2022-12-29T12:07:01;25.60;28.00
21171;DHT22;10743;52.160;20.910;2022-12-29T12:09:51;25.70;27.80
21171;DHT22;10743;52.160;20.910;2022-12-29T12:12:46;25.60;28.00
21171;DHT22;10743;52.160;20.910;2022-12-29T12:15:31;25.60;28.00
21171;DHT22;10743;52.160;20.910;2022-12-29T12:21:38;25.60;28.00
21171;DHT22;10743;52.160;20.910;2022-12-29T12:27:10;25.70;28.00
21171;DHT22;10743;52.160;20.910;2022-12-29T12:29:56;25.70;28.00
21171;DHT22;10743;52.160;20.910;2022-12-29T12:44:11;25.80;27.90
21171;DHT22;10743;52.160;20.910;2022-12-29T12:46:50;25.80;27.80
21171;DHT22;10743;52.160;20.910;2022-12-29T13:01:22;25.90;28.00
21171;DHT22;10743;52.160;20.910;2022-12-29T13:10:41;26.00;27.90
21171;DHT22;10743;52.160;20.910;2022-12-29T13:19:41;26.10;28.00
21171;DHT22;10743;52.160;20.910;2022-12-29T13:22:34;26.20;28.00
21171;DHT22;10743;52.160;20.910;2022-12-29T13:28:23;26.30;27.90
21171;DHT22;10743;52.160;20.910;2022-12-29T13:37:09;26.20;28.00
21171;DHT22;10743;52.160;20.910;2022-12-29T13:39:26;26.30;28.00
21171;DHT22;10743;52.160;20.910;2022-12-29T13:41:58;26.20;27.90
21171;DHT22;10743;52.160;20.910;2022-12-29T13:44:34;26.20;28.20
21171;DHT22;10743;52.160;20.910;2022-12-29T13:47:28;26.20;28.20
21171;DHT22;10743;52.160;20.910;2022-12-29T13:50:22;26.20;28.10
21171;DHT22;10743;52.160;20.910;2022-12-29T13:58:56;26.10;28.00
21171;DHT22;10743;52.160;20.910;2022-12-29T14:01:41;26.20;28.10
21171;DHT22;10743;52.160;20.910;2022-12-29T14:04:14;26.20;28.10
21171;DHT22;10743;52.160;20.910;2022-12-29T14:07:03;26.20;28.10
21171;DHT22;10743;52.160;20.910;2022-12-29T14:12:32;26.20;28.20
21171;DHT22;10743;52.160;20.910;2022-12-29T14:15:19;26.20;28.10
21171;DHT22;10743;52.160;20.910;2022-12-29T14:20:57;26.20;28.20
21171;DHT22;10743;52.160;20.910;2022-12-29T14:23:37;26.30;28.10
21171;DHT22;10743;52.160;20.910;2022-12-29T14:28:37;26.30;28.10
21171;DHT22;10743;52.160;20.910;2022-12-29T14:36:42;26.30;27.90
21171;DHT22;10743;52.160;20.910;2022-12-29T14:42:04;26.40;28.00
21171;DHT22;10743;52.160;20.910;2022-12-29T14:44:33;26.40;28.10
21171;DHT22;10743;52.160;20.910;2022-12-29T14:47:05;26.40;28.00
21171;DHT22;10743;52.160;20.910;2022-12-29T14:49:42;26.40;28.00
21171;DHT22;10743;52.160;20.910;2022-12-29T14:52:25;26.30;28.10
21171;DHT22;10743;52.160;20.910;2022-12-29T14:55:28;26.40;28.10
21171;DHT22;10743;52.160;20.910;2022-12-29T14:58:06;26.30;28.10
21171;DHT22;10743;52.160;20.910;2022-12-29T15:00:41;26.30;28.10
21171;DHT22;10743;52.160;20.910;2022-12-29T15:06:03;26.30;28.20
21171;DHT22;10743;52.160;20.910;2022-12-29T15:08:56;26.30;28.20
21171;DHT22;10743;52.160;20.910;2022-12-29T15:14:03;26.30;28.30
21171;DHT22;10743;52.160;20.910;2022-12-29T15:16:32;26.30;28.20
21171;DHT22;10743;52.160;20.910;2022-12-29T15:19:03;26.30;28.30
21171;DHT22;10743;52.160;20.910;2022-12-29T15:21:34;26.30;28.30
21171;DHT22;10743;52.160;20.910;2022-12-29T15:24:03;26.30;28.20
21171;DHT22;10743;52.160;20.910;2022-12-29T15:26:39;26.30;28.20
21171;DHT22;10743;52.160;20.910;2022-12-29T15:29:35;26.30;28.20
21171;DHT22;10743;52.160;20.910;2022-12-29T15:32:39;26.30;28.10
21171;DHT22;10743;52.160;20.910;2022-12-29T15:35:37;26.30;28.20
21171;DHT22;10743;52.160;20.910;2022-12-29T15:38:16;26.30;28.30
21171;DHT22;10743;52.160;20.910;2022-12-29T15:41:02;26.20;28.20
21171;DHT22;10743;52.160;20.910;2022-12-29T15:46:13;26.20;28.30
21171;DHT22;10743;52.160;20.910;2022-12-29T15:48:41;26.20;28.30
21171;DHT22;10743;52.160;20.910;2022-12-29T15:51:20;26.20;28.20
21171;DHT22;10743;52.160;20.910;2022-12-29T15:53:57;26.20;28.20
21171;DHT22;10743;52.160;20.910;2022-12-29T15:56:28;26.20;28.20
21171;DHT22;10743;52.160;20.910;2022-12-29T15:59:03;26.20;28.30
21171;DHT22;10743;52.160;20.910;2022-12-29T16:01:34;26.20;28.30
21171;DHT22;10743;52.160;20.910;2022-12-29T16:04:05;26.20;28.30
21171;DHT22;10743;52.160;20.910;2022-12-29T16:06:39;26.20;28.30
21171;DHT22;10743;52.160;20.910;2022-12-29T16:09:16;26.20;28.50
21171;DHT22;10743;52.160;20.910;2022-12-29T16:11:51;26.20;28.40
21171;DHT22;10743;52.160;20.910;2022-12-29T16:17:04;26.20;28.50
21171;DHT22;10743;52.160;20.910;2022-12-29T16:19:40;26.20;28.50
21171;DHT22;10743;52.160;20.910;2022-12-29T16:22:17;26.20;28.50
21171;DHT22;10743;52.160;20.910;2022-12-29T16:25:00;26.20;28.50
21171;DHT22;10743;52.160;20.910;2022-12-29T16:27:41;26.10;28.50
21171;DHT22;10743;52.160;20.910;2022-12-29T16:30:22;26.10;28.60
21171;DHT22;10743;52.160;20.910;2022-12-29T16:33:01;26.10;28.70
21171;DHT22;10743;52.160;20.910;2022-12-29T16:38:15;26.10;28.70
21171;DHT22;10743;52.160;20.910;2022-12-29T16:41:01;26.00;28.70
21171;DHT22;10743;52.160;20.910;2022-12-29T16:43:35;26.00;28.70
21171;DHT22;10743;52.160;20.910;2022-12-29T16:46:27;26.00;28.80
21171;DHT22;10743;52.160;20.910;2022-12-29T16:48:56;26.00;28.90
21171;DHT22;10743;52.160;20.910;2022-12-29T16:51:32;25.90;28.90
21171;DHT22;10743;52.160;20.910;2022-12-29T16:54:02;25.90;28.90
21171;DHT22;10743;52.160;20.910;2022-12-29T16:56:33;25.90;28.90
21171;DHT22;10743;52.160;20.910;2022-12-29T17:02:05;25.90;28.90
21171;DHT22;10743;52.160;20.910;2022-12-29T17:04:42;25.90;28.90
21171;DHT22;10743;52.160;20.910;2022-12-29T17:07:20;26.00;29.00
21171;DHT22;10743;52.160;20.910;2022-12-29T17:09:48;25.90;29.00
21171;DHT22;10743;52.160;20.910;2022-12-29T17:12:19;25.90;29.00
21171;DHT22;10743;52.160;20.910;2022-12-29T17:14:53;25.90;29.00
21171;DHT22;10743;52.160;20.910;2022-12-29T17:19:57;25.90;28.90
21171;DHT22;10743;52.160;20.910;2022-12-29T17:22:31;25.90;28.90
21171;DHT22;10743;52.160;20.910;2022-12-29T17:25:00;25.90;28.90
21171;DHT22;10743;52.160;20.910;2022-12-29T17:27:47;25.90;29.00
21171;DHT22;10743;52.160;20.910;2022-12-29T17:30:20;25.90;29.00
21171;DHT22;10743;52.160;20.910;2022-12-29T17:33:06;25.90;29.00
21171;DHT22;10743;52.160;20.910;2022-12-29T17:35:37;25.90;28.90
21171;DHT22;10743;52.160;20.910;2022-12-29T17:38:25;25.90;29.00
21171;DHT22;10743;52.160;20.910;2022-12-29T17:40:55;25.90;29.00
21171;DHT22;10743;52.160;20.910;2022-12-29T17:43:22;25.90;29.00
21171;DHT22;10743;52.160;20.910;2022-12-29T17:45:55;25.90;28.90
21171;DHT22;10743;52.160;20.910;2022-12-29T17:48:23;25.90;29.00
21171;DHT22;10743;52.160;20.910;2022-12-29T17:50:52;26.00;29.10
21171;DHT22;10743;52.160;20.910;2022-12-29T17:53:27;25.90;29.00
21171;DHT22;10743;52.160;20.910;2022-12-29T17:55:55;26.00;29.10
21171;DHT22;10743;52.160;20.910;2022-12-29T17:58:27;25.90;29.00
21171;DHT22;10743;52.160;20.910;2022-12-29T18:00:57;25.90;29.00
21171;DHT22;10743;52.160;20.910;2022-12-29T18:03:28;25.90;29.10
21171;DHT22;10743;52.160;20.910;2022-12-29T18:05:57;25.90;29.10
21171;DHT22;10743;52.160;20.910;2022-12-29T18:08:25;25.90;29.10
21171;DHT22;10743;52.160;20.910;2022-12-29T18:10:54;25.90;29.20
21171;DHT22;10743;52.160;20.910;2022-12-29T18:13:24;25.90;29.10
21171;DHT22;10743;52.160;20.910;2022-12-29T18:16:09;25.80;29.30
21171;DHT22;10743;52.160;20.910;2022-12-29T18:18:37;25.80;29.30
21171;DHT22;10743;52.160;20.910;2022-12-29T18:21:04;25.80;29.30
21171;DHT22;10743;52.160;20.910;2022-12-29T18:23:33;25.80;29.30
21171;DHT22;10743;52.160;20.910;2022-12-29T18:26:22;25.80;29.20
21171;DHT22;10743;52.160;20.910;2022-12-29T18:28:55;25.80;29.30
21171;DHT22;10743;52.160;20.910;2022-12-29T18:31:28;25.80;29.30